Metan, Argentina
Current Conditions -  °F | °C
As of 6:00 PM on Friday 24 Oct 2014 (Local Time) from SASA Reporting Station
Scattered Clouds Scattered Clouds  
Wind Chill: 86°   Ceiling: Unl
Heat Index: 86°   Visibility: 6mi
Dew Point: 55°   Wind: 9mph
Humidity: 35%   Direction: 50°NE
Pressure: 30"   Gusts: NA
Location:  25.48°S, 64.95°W
Report Text: SASA 242100Z 05008KT 9999 SCT035 30/13 Q1016
Loading
Personal Weather Stations






























Interactive Weather Map
Tropical Storm Tracking
New forecast layout! Learn more

10-Day Weather Forecast

Advertisements
Track Severe Weather on mobile